Impacts METAR Board INFO
IDs:

KCSG - Columbus Arpt, GA, US

Updated at: 2334 UTC 18 Feb 2018
Potential Impact None Slight Moderate High
Time18/11Z 18/12Z 18/13Z 18/14Z 18/15Z 18/16Z 18/17Z 18/18Z 18/19Z 18/20Z 18/21Z 18/22Z 18/23Z
VIS10 10 10 10 10 10 10 10 10 10 10 10 10
CIG11 11 27 26 26 26 22 85 85 85 100 110 100
CoverOVCOVCOVCOVCOVCOVCOVCOVCOVCOVCBKNOVCOVC
FltCatMVFRMVFRMVFRMVFRMVFRMVFRMVFRVFRVFRVFRVFRVFRVFR
WX--------------------------
WDir10360350208010010090100805080
WSpd5 6 5 5 4 3 0 3 5 4 4 4 4
WGst-- -- -- -- -- -- -- -- -- -- -- -- --
Raw hourly METARs
KCSG 181051Z AUTO 01005KT 10SM OVC011 17/14 A3017 RMK AO2 SLP213 T01720139
KCSG 181151Z AUTO 36006KT 10SM BKN011 OVC026 17/13 A3019 RMK AO2 SLP220 60000 T01670133 10206 20167 53017
KCSG 181251Z AUTO 35005KT 10SM SCT011 OVC027 16/13 A3021 RMK AO2 RAB05E25 SLP226 P0000 T01610133
KCSG 181351Z 02005KT 10SM FEW012 OVC026 16/12 A3023 RMK AO2 SLP234 T01610122
KCSG 181502Z 08004KT 10SM FEW013 OVC026 17/12 A3025 RMK AO2 T01670122
KCSG 181551Z 01003KT 10SM BKN026 OVC060 17/12 A3027 RMK AO2 SLP246 T01720122
KCSG 181651Z 00000KT 10SM OVC022 17/12 A3027 RMK AO2 SLP246 T01720122
KCSG 181751Z 10003KT 10SM SCT025 BKN085 OVC120 18/13 A3025 RMK AO2 SLP238 60000 T01830128 10183 20161 58002
KCSG 181851Z 09005KT 10SM FEW024 OVC085 19/13 A3022 RMK AO2 RAB08E18 SLP229 P0000 T01940128
KCSG 181951Z 10004KT 10SM OVC085 21/13 A3020 RMK AO2 SLP224 T02060133
KCSG 182051Z 08004KT 10SM BKN100 22/14 A3020 RMK AO2 SLP222 60000 T02170139 56017
KCSG 182151Z 05004KT 10SM OVC110 22/14 A3020 RMK AO2 SLP221 T02220139
KCSG 182251Z 08004KT 10SM OVC100 22/14 A3020 RMK AO2 SLP222 T02220144